Time;durP1;ratioP1;P1;durP2;ratioP2;P2;SDS_P1;SDS_P2;PMS_P1;PMS_P2;Temp;Humidity;BMP_temperature;BMP_pressure;BME280_temperature;BME280_humidity;BME280_pressure;Samples;Min_cycle;Max_cycle;Signal;HPM_P1;HPM_P2
2023/01/25 00:03:59;;;;;;;5.40;3.20;;;;;;;;;;20683946;28;20074;-67
2023/01/25 00:14:10;;;;;;;6.32;3.97;;;;;;;;;;20961467;28;20074;-64
2023/01/25 00:24:15;;;;;;;6.10;3.77;;;;;;;;;;20998835;28;20049;-66
2023/01/25 00:34:25;;;;;;;7.03;4.00;;;;;;;;;;20999294;28;20048;-63
2023/01/25 00:44:28;;;;;;;6.35;3.60;;;;;;;;;;21001414;28;20131;-62
2023/01/25 00:54:31;;;;;;;6.13;3.75;;;;;;;;;;21004498;28;20049;-65
2023/01/25 01:04:36;;;;;;;6.88;3.70;;;;;;;;;;20996851;28;20058;-63
2023/01/25 01:14:40;;;;;;;7.75;3.80;;;;;;;;;;20998936;28;20048;-68
2023/01/25 01:24:43;;;;;;;6.70;3.67;;;;;;;;;;20997658;28;20451;-64
2023/01/25 01:34:46;;;;;;;7.70;4.15;;;;;;;;;;21017273;28;20057;-67
2023/01/25 01:44:51;;;;;;;8.75;3.92;;;;;;;;;;21019749;28;20485;-66
2023/01/25 01:54:54;;;;;;;6.97;4.50;;;;;;;;;;21013570;28;20048;-64
2023/01/25 02:04:59;;;;;;;5.82;3.70;;;;;;;;;;21011347;28;20104;-61
2023/01/25 02:15:05;;;;;;;7.05;3.83;;;;;;;;;;21008732;28;20045;-63
2023/01/25 02:25:10;;;;;;;6.50;4.07;;;;;;;;;;21008321;28;20075;-61
2023/01/25 02:35:22;;;;;;;7.90;4.15;;;;;;;;;;21025402;28;20080;-72
2023/01/25 02:45:29;;;;;;;6.78;3.40;;;;;;;;;;21010122;28;20084;-64
2023/01/25 02:55:33;;;;;;;6.35;4.20;;;;;;;;;;21005865;28;20044;-64
2023/01/25 03:05:35;;;;;;;5.10;3.15;;;;;;;;;;21003969;28;20048;-63
2023/01/25 03:15:40;;;;;;;7.90;4.47;;;;;;;;;;21003609;28;20055;-61
2023/01/25 03:25:47;;;;;;;5.85;3.53;;;;;;;;;;21003302;28;20052;-64
2023/01/25 03:35:54;;;;;;;6.60;3.33;;;;;;;;;;21003494;28;20072;-67
2023/01/25 03:45:59;;;;;;;7.85;4.32;;;;;;;;;;21008993;28;20418;-65
2023/01/25 03:56:07;;;;;;;5.82;3.50;;;;;;;;;;20998659;28;20127;-64
2023/01/25 04:06:16;;;;;;;6.28;3.63;;;;;;;;;;20998820;28;20503;-65
2023/01/25 04:16:37;;;;;;;6.40;3.80;;;;;;;;;;20997762;28;20048;-65
2023/01/25 04:26:59;;;;;;;6.57;3.80;;;;;;;;;;20997499;28;20060;-63
2023/01/25 04:37:20;;;;;;;6.07;3.33;;;;;;;;;;20998865;28;20481;-65
2023/01/25 04:47:33;;;;;;;7.63;4.22;;;;;;;;;;20999075;28;20056;-65
2023/01/25 04:57:36;;;;;;;7.47;4.20;;;;;;;;;;21000017;28;20044;-64
2023/01/25 05:07:39;;;;;;;7.35;3.65;;;;;;;;;;21007313;28;20078;-63
2023/01/25 05:17:41;;;;;;;5.57;3.72;;;;;;;;;;21013360;28;20048;-64
2023/01/25 05:27:44;;;;;;;7.82;4.07;;;;;;;;;;21010598;28;20063;-62
2023/01/25 05:37:46;;;;;;;7.55;3.90;;;;;;;;;;21010247;28;20501;-64
2023/01/25 05:47:53;;;;;;;6.20;3.90;;;;;;;;;;21010422;28;20499;-64
2023/01/25 05:57:55;;;;;;;7.63;3.92;;;;;;;;;;21009498;28;20044;-62
2023/01/25 06:07:58;;;;;;;5.88;3.50;;;;;;;;;;20997156;28;20044;-60
2023/01/25 06:18:02;;;;;;;6.40;3.60;;;;;;;;;;21015341;28;20045;-61
2023/01/25 06:28:03;;;;;;;6.43;4.05;;;;;;;;;;21008895;28;20063;-65
2023/01/25 06:38:06;;;;;;;5.15;3.35;;;;;;;;;;21007464;28;20052;-61
2023/01/25 06:48:08;;;;;;;10.05;4.45;;;;;;;;;;21012029;28;20063;-66
2023/01/25 06:58:10;;;;;;;10.35;4.88;;;;;;;;;;21010183;28;20449;-66
2023/01/25 07:08:11;;;;;;;7.25;3.90;;;;;;;;;;21004001;28;20060;-65
2023/01/25 07:18:13;;;;;;;7.35;4.70;;;;;;;;;;21003059;28;20102;-63
2023/01/25 07:28:16;;;;;;;10.50;5.28;;;;;;;;;;21002970;28;20112;-63
2023/01/25 07:38:18;;;;;;;8.35;5.13;;;;;;;;;;21009285;28;20084;-63
2023/01/25 07:48:20;;;;;;;10.32;5.20;;;;;;;;;;21011010;28;20049;-63
2023/01/25 07:58:22;;;;;;;9.40;5.10;;;;;;;;;;21007215;28;20095;-65
2023/01/25 08:08:24;;;;;;;6.93;4.20;;;;;;;;;;21009434;28;20080;-65
2023/01/25 08:18:26;;;;;;;8.43;5.00;;;;;;;;;;21002993;28;20118;-65
2023/01/25 08:28:28;;;;;;;6.65;4.75;;;;;;;;;;21001385;28;20539;-64
2023/01/25 08:38:30;;;;;;;9.65;5.00;;;;;;;;;;21014720;28;20528;-67
2023/01/25 08:48:33;;;;;;;6.57;4.28;;;;;;;;;;21017222;28;20450;-66
2023/01/25 08:58:36;;;;;;;11.38;5.63;;;;;;;;;;21014401;28;20040;-63
2023/01/25 09:08:39;;;;;;;10.90;4.65;;;;;;;;;;21012851;28;20098;-64
2023/01/25 09:18:42;;;;;;;10.90;5.82;;;;;;;;;;21011875;28;20393;-63
2023/01/25 09:28:48;;;;;;;7.63;4.65;;;;;;;;;;21011355;28;20049;-64
2023/01/25 09:38:49;;;;;;;;;;;;;;;;;;21011275;28;20080;-64
2023/01/25 09:48:58;;;;;;;10.27;4.25;;;;;;;;;;21009405;28;20015;-63
2023/01/25 09:59:03;;;;;;;8.18;3.63;;;;;;;;;;21015131;28;20051;-64
2023/01/25 10:09:11;;;;;;;7.53;3.53;;;;;;;;;;21013102;28;20469;-65
2023/01/25 10:19:25;;;;;;;6.32;3.85;;;;;;;;;;21023492;28;20045;-64
2023/01/25 10:29:30;;;;;;;6.38;4.30;;;;;;;;;;21007217;28;20412;-63
2023/01/25 10:39:33;;;;;;;6.80;3.70;;;;;;;;;;21012071;28;20500;-70
2023/01/25 10:49:35;;;;;;;4.88;3.22;;;;;;;;;;21021790;28;20854;-65
2023/01/25 10:59:38;;;;;;;6.20;3.50;;;;;;;;;;21012709;28;20057;-60
2023/01/25 11:09:40;;;;;;;5.28;3.40;;;;;;;;;;20985405;28;20044;-67
2023/01/25 11:19:42;;;;;;;6.00;3.38;;;;;;;;;;20984204;28;20076;-71
2023/01/25 11:29:45;;;;;;;7.10;3.72;;;;;;;;;;20974987;28;20053;-64
2023/01/25 11:51:05;;;;;;;7.75;3.90;;;;;;;;;;21116230;22;20140;-60
2023/01/25 12:01:13;;;;;;;3.75;2.50;;;;;;;;;;20998310;28;20048;-60
2023/01/25 12:11:29;;;;;;;6.80;3.65;;;;;;;;;;20998296;28;20483;-60
2023/01/25 12:21:34;;;;;;;4.28;2.42;;;;;;;;;;20996593;28;20051;-59
2023/01/25 12:31:36;;;;;;;5.97;2.60;;;;;;;;;;20995868;28;20140;-59
2023/01/25 12:41:56;;;;;;;4.85;3.10;;;;;;;;;;20996801;28;20387;-58
2023/01/25 12:52:00;;;;;;;14.20;8.43;;;;;;;;;;20996791;28;20057;-61
2023/01/25 13:02:02;;;;;;;3.40;1.73;;;;;;;;;;20995702;28;20040;-61
2023/01/25 13:12:04;;;;;;;4.57;1.85;;;;;;;;;;20994554;28;20448;-60
2023/01/25 13:22:08;;;;;;;3.67;1.60;;;;;;;;;;20994552;28;20051;-63
2023/01/25 13:32:11;;;;;;;3.28;1.35;;;;;;;;;;21008839;28;20064;-63
2023/01/25 13:42:13;;;;;;;3.30;0.80;;;;;;;;;;21024411;28;20044;-59
2023/01/25 13:52:16;;;;;;;1.58;1.02;;;;;;;;;;21013038;28;20063;-63
2023/01/25 14:02:18;;;;;;;1.85;1.10;;;;;;;;;;21009749;28;20095;-59
2023/01/25 14:12:39;;;;;;;4.25;1.88;;;;;;;;;;21007555;28;20098;-60
2023/01/25 14:22:46;;;;;;;5.47;2.50;;;;;;;;;;21006971;28;20471;-59
2023/01/25 14:32:58;;;;;;;2.58;1.60;;;;;;;;;;21005908;28;20055;-61
2023/01/25 14:43:01;;;;;;;3.55;1.67;;;;;;;;;;21006095;28;20068;-61
2023/01/25 14:53:08;;;;;;;4.28;1.50;;;;;;;;;;21003920;28;20056;-62
2023/01/25 15:03:15;;;;;;;3.05;1.50;;;;;;;;;;21002703;28;20094;-60
2023/01/25 15:13:17;;;;;;;2.50;1.17;;;;;;;;;;21002063;28;20169;-60
2023/01/25 15:23:18;;;;;;;4.20;1.48;;;;;;;;;;20982884;28;20480;-60
2023/01/25 15:33:24;;;;;;;2.00;1.10;;;;;;;;;;21000697;28;20063;-60
2023/01/25 15:43:27;;;;;;;3.17;1.20;;;;;;;;;;21000143;28;20044;-62
2023/01/25 15:53:29;;;;;;;3.50;1.30;;;;;;;;;;20998277;28;20052;-60
2023/01/25 16:03:31;;;;;;;2.95;1.08;;;;;;;;;;20997825;28;20506;-60
2023/01/25 16:13:33;;;;;;;1.70;1.00;;;;;;;;;;20998581;28;20067;-58
2023/01/25 16:23:34;;;;;;;3.08;1.25;;;;;;;;;;20998605;28;20044;-58
2023/01/25 16:33:36;;;;;;;3.45;1.63;;;;;;;;;;20997547;28;20053;-62
2023/01/25 16:43:47;;;;;;;4.32;2.08;;;;;;;;;;20996761;28;20091;-71
2023/01/25 16:53:51;;;;;;;6.28;2.58;;;;;;;;;;20995319;28;20226;-69
2023/01/25 17:03:53;;;;;;;5.45;1.70;;;;;;;;;;21006697;28;20055;-62
2023/01/25 17:13:57;;;;;;;4.70;2.22;;;;;;;;;;21011767;28;20449;-64
2023/01/25 17:24:00;;;;;;;9.00;2.50;;;;;;;;;;21013442;28;20555;-68
2023/01/25 17:34:03;;;;;;;5.20;2.00;;;;;;;;;;21011168;28;20076;-69
2023/01/25 17:44:05;;;;;;;6.50;4.00;;;;;;;;;;21009511;28;20543;-61
2023/01/25 17:54:07;;;;;;;4.90;1.90;;;;;;;;;;21012066;28;20438;-63
2023/01/25 18:04:11;;;;;;;8.38;2.63;;;;;;;;;;21010785;28;20407;-62
2023/01/25 18:14:15;;;;;;;6.13;2.88;;;;;;;;;;21006877;28;20052;-61
2023/01/25 18:24:26;;;;;;;9.50;2.97;;;;;;;;;;20987119;28;20052;-60
2023/01/25 18:34:28;;;;;;;6.63;3.22;;;;;;;;;;20997417;28;20048;-60
2023/01/25 18:44:29;;;;;;;7.18;4.50;;;;;;;;;;20994226;28;20127;-58
2023/01/25 18:54:31;;;;;;;6.30;4.60;;;;;;;;;;20999723;28;20075;-58
2023/01/25 19:04:33;;;;;;;7.68;4.40;;;;;;;;;;21003519;28;20568;-56
2023/01/25 19:14:34;;;;;;;7.97;5.05;;;;;;;;;;20995348;28;20055;-60
2023/01/25 19:24:35;;;;;;;6.57;4.85;;;;;;;;;;20991453;28;20510;-57
2023/01/25 19:34:37;;;;;;;10.25;6.47;;;;;;;;;;20995405;28;20049;-55
2023/01/25 19:44:38;;;;;;;11.20;6.55;;;;;;;;;;20987514;28;20072;-57
2023/01/25 19:54:40;;;;;;;11.88;7.55;;;;;;;;;;20987869;28;20437;-60
2023/01/25 20:04:42;;;;;;;12.02;7.47;;;;;;;;;;20946898;28;20053;-57
2023/01/25 20:14:43;;;;;;;14.57;7.10;;;;;;;;;;20915143;28;20099;-57
2023/01/25 20:24:45;;;;;;;13.27;7.93;;;;;;;;;;20940824;28;20055;-58
2023/01/25 20:34:48;;;;;;;10.38;7.07;;;;;;;;;;20996856;28;20048;-60
2023/01/25 20:44:50;;;;;;;15.35;8.43;;;;;;;;;;20995805;28;20045;-59
2023/01/25 20:54:53;;;;;;;14.10;8.70;;;;;;;;;;21004210;28;20052;-59
2023/01/25 21:04:55;;;;;;;18.85;10.02;;;;;;;;;;20994782;28;20057;-59
2023/01/25 21:14:57;;;;;;;14.23;9.40;;;;;;;;;;20994928;28;20129;-58
2023/01/25 21:24:59;;;;;;;16.67;9.68;;;;;;;;;;20994258;28;20052;-59
2023/01/25 21:35:01;;;;;;;13.85;9.32;;;;;;;;;;20976099;28;20048;-59
2023/01/25 21:55:24;;;;;;;20.15;13.57;;;;;;;;;;21008441;28;20055;-58
2023/01/25 22:05:26;;;;;;;21.58;11.27;;;;;;;;;;21008493;28;20056;-61
2023/01/25 22:15:28;;;;;;;17.63;10.25;;;;;;;;;;21006341;28;20561;-61
2023/01/25 22:25:30;;;;;;;19.60;11.90;;;;;;;;;;21005052;28;20434;-61
2023/01/25 22:35:32;;;;;;;24.27;15.45;;;;;;;;;;21005113;28;20052;-61
2023/01/25 22:45:36;;;;;;;12.80;6.72;;;;;;;;;;21005152;28;20427;-59
2023/01/25 22:55:38;;;;;;;11.30;6.65;;;;;;;;;;21004556;28;20044;-59
2023/01/25 23:05:39;;;;;;;10.35;7.65;;;;;;;;;;21003361;28;20074;-60
2023/01/25 23:15:41;;;;;;;11.77;7.13;;;;;;;;;;21002520;28;20452;-60
2023/01/25 23:25:46;;;;;;;12.30;7.55;;;;;;;;;;21000672;28;20090;-58
2023/01/25 23:35:48;;;;;;;7.32;4.30;;;;;;;;;;21000734;28;20566;-58
2023/01/25 23:45:50;;;;;;;8.50;5.43;;;;;;;;;;20999874;28;20454;-60
2023/01/25 23:55:53;;;;;;;7.78;4.50;;;;;;;;;;20999229;28;20048;-59
